Clinton, Tennessee
Current Conditions -  °F | °C
As of 6:53 PM on Wednesday 26 Nov 2014 (Local Time) from KOQT Reporting Station
Few Clouds Few Clouds  
Wind Chill: 48°   Ceiling: Unl
Heat Index: 48°   Visibility: 10mi
Dew Point: 22°   Wind: 3mph
Humidity: 36%   Direction: 210°SSW
Pressure: 30.04"   Gusts: NA
Location:  36.1°N, 84.13°W
Report Text: KOQT 262353Z AUTO 21003KT 10SM FEW120 09/M06 A3004 RMK AO2 SLP177 T00891056 10122 20089 50003
Loading
Personal Weather Stations






























Interactive Weather Map New forecast layout! Learn more

10-Day Weather Forecast

Advertisements
Track Severe Weather on mobile